Terminal Aerodrome Forecast
Issued by NWS Spokane, WA

Home | Current Version | Previous Version | Text Only | Print | Product List | Glossary On
Versions: 1 2 3 4 5 6 7 8 9 10 11 12 13 14 15 16 17 18 19 20 21 22 23 24
662
FTUS46 KOTX 211120
TAFEAT
TAF
KEAT 211120Z 2112/2212 32007KT P6SM SCT150
     FM211500 31005KT P6SM BKN150
     FM212000 13006KT P6SM BKN120 BKN200
     FM220100 30009KT P6SM BKN100 BKN150
     FM220800 31009KT P6SM SCT090 BKN120=

USA.gov is the U.S. government's official web portal to all federal, state and local government web resources and services.